< < Back
Terminal Aerodrome Forecast


Current Version              Previous Versions:   1  2  3  4  5  6  7  8  9  

Terminal Aerodrome Forecast

370
FTUS42 KJAX 272331
TAFJAX
TAF
KJAX 272331Z 2800/2824 32006KT P6SM SKC
     FM281500 02009KT P6SM SKC=

Latest METAR

875
SAUS80 KWBC 280400 CCA
MTRJAX
METAR KJAX 280356Z 31003KT 10SM CLR 06/02 A3006 RMK AO2 SLP179
T00610022


USA.gov is the U.S. government's official web portal to all federal, state and local government web resources and services.